Time;durP1;ratioP1;P1;durP2;ratioP2;P2;SDS_P1;SDS_P2;PMS_P1;PMS_P2;Temp;Humidity;BMP_temperature;BMP_pressure;BME280_temperature;BME280_humidity;BME280_pressure;Samples;Min_cycle;Max_cycle;Signal;HPM_P1;HPM_P2
2022/05/07 11:00:58;;;;;;;27.70;15.20;;;23.50;99.90;;;;;;5067269;28;20342;-59
2022/05/07 11:03:28;;;;;;;27.98;14.90;;;23.30;99.90;;;;;;5053694;28;20110;-60
2022/05/07 11:06:02;;;;;;;18.95;12.13;;;23.20;99.90;;;;;;5059214;28;20091;-59
2022/05/07 11:08:30;;;;;;;23.02;13.63;;;23.20;99.90;;;;;;5057502;28;20029;-56
2022/05/07 11:11:07;;;;;;;24.58;12.73;;;23.50;99.90;;;;;;5055382;28;20033;-59
2022/05/07 11:13:43;;;;;;;25.55;14.27;;;23.50;99.90;;;;;;5081235;22;20035;-60
2022/05/07 11:16:08;;;;;;;27.48;14.10;;;23.50;99.90;;;;;;5042852;28;20041;-56
2022/05/07 11:18:34;;;;;;;23.30;13.80;;;23.80;99.90;;;;;;5065299;28;20081;-57
2022/05/07 11:21:03;;;;;;;27.23;14.65;;;23.90;99.90;;;;;;5061759;28;20056;-57
2022/05/07 11:23:30;;;;;;;23.65;13.75;;;24.00;99.90;;;;;;5063162;28;20666;-55
2022/05/07 11:25:56;;;;;;;31.77;14.93;;;24.20;99.90;;;;;;5054808;28;20115;-55
2022/05/07 11:28:22;;;;;;;18.15;10.77;;;24.20;99.90;;;;;;5061583;28;20111;-55
2022/05/07 11:30:52;;;;;;;19.30;11.35;;;23.90;99.90;;;;;;5068322;28;20031;-54
2022/05/07 11:33:24;;;;;;;20.52;11.90;;;24.00;99.90;;;;;;5069500;28;20402;-56
2022/05/07 11:36:08;;;;;;;20.35;10.95;;;24.40;99.90;;;;;;5063745;28;20040;-56
2022/05/07 11:38:35;;;;;;;18.83;11.32;;;24.80;99.60;;;;;;5054747;28;20064;-55
2022/05/07 11:41:14;;;;;;;22.77;12.48;;;24.90;98.00;;;;;;5066737;28;20143;-57
2022/05/07 11:46:25;;;;;;;24.88;12.45;;;24.10;98.30;;;;;;5066547;28;20040;-55
2022/05/07 11:48:51;;;;;;;21.40;12.30;;;24.00;98.00;;;;;;5066401;28;20494;-57
2022/05/07 11:51:24;;;;;;;19.10;10.50;;;23.10;99.90;;;;;;5063192;28;20108;-57
2022/05/07 11:53:51;;;;;;;19.35;11.50;;;22.80;99.90;;;;;;5065923;28;20098;-55
2022/05/07 11:56:17;;;;;;;20.15;13.35;;;22.70;99.50;;;;;;5060625;28;20120;-56
2022/05/07 11:58:44;;;;;;;27.33;12.73;;;22.70;98.90;;;;;;5063957;28;20033;-57
2022/05/07 12:01:23;;;;;;;19.67;10.30;;;22.70;99.50;;;;;;5064973;28;20151;-57
2022/05/07 12:03:53;;;;;;;18.48;10.75;;;23.10;99.90;;;;;;5061620;28;20032;-56
2022/05/07 12:06:31;;;;;;;19.52;11.52;;;23.70;99.90;;;;;;5061173;28;20028;-58
2022/05/07 12:08:58;;;;;;;18.05;10.77;;;23.80;98.10;;;;;;5056259;28;20040;-58
2022/05/07 12:11:24;;;;;;;20.13;11.20;;;23.90;98.00;;;;;;5054630;28;20026;-57
2022/05/07 12:13:50;;;;;;;20.42;10.52;;;24.00;97.50;;;;;;5054415;28;20033;-58
2022/05/07 12:18:59;;;;;;;21.38;11.95;;;24.00;95.80;;;;;;5053287;28;20040;-57
2022/05/07 12:29:49;;;;;;;17.95;10.55;;;24.50;94.20;;;;;;5045335;28;20394;-55
2022/05/07 12:32:24;;;;;;;19.75;11.20;;;24.70;94.80;;;;;;5050169;28;20037;-58
2022/05/07 12:34:50;;;;;;;21.45;11.30;;;24.80;94.30;;;;;;5054664;28;20091;-55
2022/05/07 12:37:16;;;;;;;19.08;9.40;;;25.00;94.30;;;;;;5058002;28;20048;-58
2022/05/07 12:39:43;;;;;;;20.60;9.73;;;25.00;97.90;;;;;;5048360;28;20074;-56
2022/05/07 12:42:10;;;;;;;14.95;9.93;;;25.10;95.10;;;;;;5048685;28;20017;-57
2022/05/07 12:44:36;;;;;;;15.98;9.60;;;25.10;93.80;;;;;;5053452;28;20021;-57
2022/05/07 12:47:05;;;;;;;16.45;9.75;;;25.40;93.10;;;;;;5050190;28;20025;-58
2022/05/07 12:49:30;;;;;;;16.95;9.48;;;25.40;93.00;;;;;;5050184;28;20028;-57
2022/05/07 12:51:56;;;;;;;18.17;10.32;;;25.40;93.30;;;;;;5051299;28;20086;-57
2022/05/07 12:54:22;;;;;;;16.13;9.68;;;25.50;92.60;;;;;;5051952;28;20047;-56
2022/05/07 12:56:48;;;;;;;20.65;11.05;;;24.80;93.20;;;;;;5049929;28;20032;-58
2022/05/07 12:59:14;;;;;;;19.92;10.73;;;24.40;93.20;;;;;;5047349;28;20033;-59
2022/05/07 13:01:40;;;;;;;20.20;9.88;;;24.00;93.80;;;;;;5053747;28;20543;-57
2022/05/07 13:04:06;;;;;;;15.10;9.73;;;23.90;94.20;;;;;;5052915;28;20514;-56
2022/05/07 13:06:31;;;;;;;24.67;12.00;;;24.00;93.80;;;;;;5046411;28;20039;-57
2022/05/07 13:09:00;;;;;;;19.45;10.68;;;23.80;93.70;;;;;;5048124;28;20115;-53
2022/05/07 13:11:27;;;;;;;17.55;9.55;;;23.90;94.60;;;;;;5054022;28;20032;-56
2022/05/07 13:13:52;;;;;;;13.27;8.13;;;24.30;93.70;;;;;;5054636;28;20032;-56
2022/05/07 13:16:18;;;;;;;15.88;8.82;;;24.80;94.60;;;;;;5049122;28;20032;-58
2022/05/07 13:18:44;;;;;;;17.85;9.52;;;25.10;92.90;;;;;;5057976;28;20107;-57
2022/05/07 13:21:11;;;;;;;15.82;9.30;;;25.20;92.00;;;;;;5049917;28;20021;-58
2022/05/07 13:23:36;;;;;;;16.98;9.90;;;25.30;92.60;;;;;;5059871;28;20078;-57
2022/05/07 13:26:03;;;;;;;15.95;8.80;;;25.40;94.20;;;;;;5048442;28;20842;-57
2022/05/07 13:28:28;;;;;;;16.50;9.18;;;25.50;94.80;;;;;;5056216;28;20362;-57
2022/05/07 13:30:56;;;;;;;19.40;11.40;;;25.60;94.40;;;;;;5050447;28;20033;-58
2022/05/07 13:33:22;;;;;;;22.02;11.00;;;25.20;94.10;;;;;;5062704;28;20021;-58
2022/05/07 13:35:48;;;;;;;23.65;11.73;;;25.00;94.20;;;;;;5037093;28;20122;-56
2022/05/07 13:38:13;;;;;;;21.52;12.63;;;24.80;94.20;;;;;;5052402;28;20084;-53
2022/05/07 13:40:39;;;;;;;18.85;11.25;;;24.50;94.40;;;;;;5050022;28;20044;-58
2022/05/07 13:43:05;;;;;;;19.58;11.48;;;24.20;94.80;;;;;;5052677;28;20026;-58
2022/05/07 13:45:30;;;;;;;17.67;10.85;;;23.90;95.50;;;;;;5054378;28;20529;-57
2022/05/07 13:47:56;;;;;;;20.58;10.27;;;23.80;96.10;;;;;;5048782;28;20032;-57
2022/05/07 13:50:22;;;;;;;20.00;11.85;;;23.70;96.80;;;;;;5052143;28;20414;-56
2022/05/07 13:52:48;;;;;;;24.45;12.15;;;23.70;96.20;;;;;;5054838;28;20501;-57
2022/05/07 13:55:13;;;;;;;17.52;9.70;;;23.80;95.70;;;;;;5043245;28;20135;-58
2022/05/07 13:57:39;;;;;;;17.58;9.70;;;23.80;96.30;;;;;;5054169;28;20029;-57
2022/05/07 14:00:06;;;;;;;18.90;9.60;;;24.10;96.20;;;;;;5056789;28;20025;-59
2022/05/07 14:02:34;;;;;;;15.45;9.43;;;24.20;95.30;;;;;;5030157;28;20116;-57
2022/05/07 14:05:00;;;;;;;15.65;8.20;;;24.10;95.50;;;;;;5051145;28;20020;-58
2022/05/07 14:07:26;;;;;;;16.70;8.50;;;24.40;95.90;;;;;;5060522;28;20509;-56
2022/05/07 14:09:52;;;;;;;26.52;10.95;;;24.70;95.80;;;;;;5054457;28;20033;-54
2022/05/07 14:12:19;;;;;;;23.38;11.18;;;24.90;95.40;;;;;;5043173;28;20033;-57
2022/05/07 14:14:46;;;;;;;20.23;11.20;;;24.80;94.80;;;;;;5054935;28;20047;-54
2022/05/07 14:17:12;;;;;;;13.18;8.60;;;24.40;94.70;;;;;;5048420;28;20035;-57
2022/05/07 14:19:39;;;;;;;20.20;10.38;;;24.00;95.50;;;;;;5050467;28;20028;-57
2022/05/07 14:22:05;;;;;;;13.10;9.57;;;24.00;95.70;;;;;;5054310;28;20474;-58
2022/05/07 14:24:31;;;;;;;16.00;10.02;;;24.00;95.50;;;;;;5049119;28;20099;-57
2022/05/07 14:26:57;;;;;;;14.75;9.25;;;23.80;95.70;;;;;;5052541;28;20886;-57
2022/05/07 14:29:23;;;;;;;13.13;8.32;;;23.60;95.90;;;;;;5048516;28;20355;-57
2022/05/07 14:31:50;;;;;;;17.80;10.90;;;23.80;96.90;;;;;;5045954;28;20032;-57
2022/05/07 14:34:16;;;;;;;19.35;9.27;;;23.80;96.10;;;;;;5046206;28;20467;-58
2022/05/07 14:36:42;;;;;;;19.75;10.00;;;23.90;96.10;;;;;;5051771;28;20108;-58
2022/05/07 14:39:07;;;;;;;21.05;9.82;;;23.80;96.00;;;;;;5056366;28;20108;-57
2022/05/07 14:41:34;;;;;;;15.77;9.77;;;24.20;96.50;;;;;;5049069;28;20402;-57
2022/05/07 14:43:59;;;;;;;19.65;9.57;;;24.60;95.20;;;;;;5043973;28;20055;-57
2022/05/07 14:46:25;;;;;;;15.25;8.95;;;24.60;94.90;;;;;;5052187;28;20420;-58
2022/05/07 14:48:50;;;;;;;18.50;9.90;;;24.50;94.60;;;;;;5060166;28;20098;-57
2022/05/07 14:51:17;;;;;;;15.95;10.90;;;24.50;94.00;;;;;;5055698;28;20028;-57
2022/05/07 14:53:44;;;;;;;18.08;9.40;;;24.70;94.00;;;;;;5051830;28;20029;-56
2022/05/07 14:56:09;;;;;;;17.88;8.80;;;24.80;93.70;;;;;;5055101;28;20017;-56
2022/05/07 14:58:35;;;;;;;24.75;17.55;;;24.70;96.20;;;;;;5049768;28;20486;-51
2022/05/07 15:01:01;;;;;;;12.20;8.70;;;25.00;95.20;;;;;;5046439;28;20033;-57
2022/05/07 15:03:27;;;;;;;16.15;8.82;;;25.00;93.40;;;;;;5025456;28;20487;-57
2022/05/07 15:05:55;;;;;;;14.10;9.15;;;24.80;93.70;;;;;;5046865;28;20044;-57
2022/05/07 15:11:05;;;;;;;;;;;24.10;94.20;;;;;;5041061;28;20092;-57
2022/05/07 15:13:30;;;;;;;21.25;9.48;;;23.90;94.80;;;;;;5042804;28;19912;-56
2022/05/07 15:15:56;;;;;;;18.30;8.98;;;23.70;94.30;;;;;;5045887;28;20064;-56
2022/05/07 15:18:22;;;;;;;13.77;7.72;;;23.50;94.30;;;;;;5058295;28;20456;-53
2022/05/07 15:20:51;;;;;;;11.70;6.93;;;23.30;94.70;;;;;;5038843;28;20547;-54
2022/05/07 15:23:16;;;;;;;15.63;7.22;;;23.30;94.80;;;;;;5052580;28;20029;-54
2022/05/07 15:25:43;;;;;;;14.10;8.02;;;23.40;95.40;;;;;;5048883;28;20105;-56
2022/05/07 15:28:09;;;;;;;11.52;7.50;;;23.30;95.90;;;;;;5052364;28;20029;-56
2022/05/07 15:30:34;;;;;;;11.95;7.32;;;23.20;96.10;;;;;;5047686;28;20039;-57
2022/05/07 15:38:28;;;;;;;10.57;6.13;;;23.80;96.10;;;;;;5045919;28;20036;-56
2022/05/07 15:40:54;;;;;;;10.95;6.03;;;23.80;96.20;;;;;;5048835;28;20040;-57
2022/05/07 15:43:19;;;;;;;11.90;6.25;;;23.40;96.80;;;;;;5043680;28;20029;-54
2022/05/07 15:45:46;;;;;;;6.50;4.53;;;23.30;96.80;;;;;;5049340;28;20032;-54
2022/05/07 15:48:14;;;;;;;8.32;5.43;;;23.30;96.40;;;;;;5033232;28;20028;-55
2022/05/07 15:50:40;;;;;;;10.77;5.50;;;23.40;95.70;;;;;;5048838;28;20441;-56
2022/05/07 15:53:06;;;;;;;12.65;6.13;;;23.70;95.90;;;;;;5038135;28;20037;-50
2022/05/07 15:55:34;;;;;;;10.38;5.45;;;23.80;95.20;;;;;;5046580;28;20040;-56
2022/05/07 15:58:01;;;;;;;5.82;3.75;;;23.90;94.40;;;;;;5048275;28;20033;-55
2022/05/07 16:00:26;;;;;;;4.93;3.45;;;24.00;93.60;;;;;;5048396;28;20033;-55
2022/05/07 16:02:52;;;;;;;4.53;2.97;;;24.00;93.80;;;;;;5050514;28;20448;-51
2022/05/07 16:05:18;;;;;;;7.00;3.38;;;24.00;93.80;;;;;;5051287;28;20028;-54
2022/05/07 16:07:44;;;;;;;3.92;2.92;;;24.00;93.30;;;;;;5053735;28;20040;-57
2022/05/07 16:10:09;;;;;;;6.47;3.75;;;24.10;93.40;;;;;;5043850;28;20082;-57
2022/05/07 16:12:35;;;;;;;8.27;3.55;;;24.00;92.80;;;;;;5051470;28;20037;-57
2022/05/07 16:15:01;;;;;;;6.00;4.63;;;24.20;93.40;;;;;;5042158;28;20399;-55
2022/05/07 16:17:28;;;;;;;3.60;3.30;;;24.30;93.90;;;;;;5048991;28;20025;-59
2022/05/07 16:19:53;;;;;;;7.50;3.28;;;24.50;91.70;;;;;;5042180;28;20104;-54
2022/05/07 16:25:04;;;;;;;6.70;3.33;;;24.80;92.60;;;;;;5050569;28;20110;-56
2022/05/07 16:27:30;;;;;;;3.97;2.95;;;25.00;91.90;;;;;;5050740;28;20029;-56
2022/05/07 16:29:56;;;;;;;4.85;2.67;;;24.30;90.80;;;;;;5051974;28;20505;-56
2022/05/07 16:32:21;;;;;;;3.97;3.47;;;24.00;91.00;;;;;;5047641;28;20068;-55
2022/05/07 16:34:47;;;;;;;3.47;2.97;;;23.50;90.90;;;;;;5028745;28;20505;-55
2022/05/07 16:37:13;;;;;;;4.85;3.60;;;23.40;91.90;;;;;;5050050;28;20025;-57
2022/05/07 16:39:42;;;;;;;3.72;3.05;;;23.10;91.50;;;;;;5047425;28;20632;-55
2022/05/07 16:42:09;;;;;;;5.40;3.15;;;23.00;91.90;;;;;;5046727;28;20470;-57
2022/05/07 16:44:35;;;;;;;4.95;2.83;;;22.90;92.50;;;;;;5055693;28;20051;-55
2022/05/07 16:47:00;;;;;;;4.13;3.00;;;22.80;93.20;;;;;;5050464;28;20029;-52
2022/05/07 16:49:30;;;;;;;2.92;2.25;;;23.00;93.20;;;;;;5028502;28;20051;-54
2022/05/07 16:51:56;;;;;;;5.60;2.38;;;23.00;93.20;;;;;;5052363;28;20050;-55
2022/05/07 16:54:22;;;;;;;5.47;2.47;;;23.00;93.20;;;;;;5041760;28;20067;-53
2022/05/07 16:56:48;;;;;;;3.40;1.60;;;23.00;93.60;;;;;;5051155;28;20470;-52
2022/05/07 16:59:14;;;;;;;2.35;1.98;;;22.90;93.20;;;;;;5050907;28;20116;-55
2022/05/07 17:01:39;;;;;;;3.67;2.47;;;23.00;93.00;;;;;;5046015;28;20096;-51
2022/05/07 17:04:05;;;;;;;3.97;2.45;;;23.00;93.80;;;;;;5048895;28;20025;-57
2022/05/07 17:06:30;;;;;;;7.40;2.58;;;22.80;95.70;;;;;;5049884;28;20024;-57
2022/05/07 17:08:57;;;;;;;3.75;2.60;;;22.30;96.80;;;;;;5053149;28;20028;-58
2022/05/07 17:11:22;;;;;;;4.90;2.97;;;22.10;97.60;;;;;;5050509;28;20079;-58
2022/05/07 17:13:48;;;;;;;4.63;2.22;;;21.70;99.90;;;;;;5044428;28;20029;-58
2022/05/07 17:16:13;;;;;;;5.57;2.63;;;21.50;99.90;;;;;;5057435;28;20529;-58
2022/05/07 17:18:39;;;;;;;4.82;2.83;;;21.20;99.90;;;;;;5049716;28;20033;-54
2022/05/07 17:21:05;;;;;;;10.43;3.83;;;21.10;99.90;;;;;;5048051;28;20455;-55
2022/05/07 17:23:30;;;;;;;20.25;5.97;;;20.80;99.90;;;;;;5048882;28;20066;-58
2022/05/07 17:25:56;;;;;;;8.13;4.47;;;20.50;99.90;;;;;;5054384;28;20029;-57
2022/05/07 17:28:22;;;;;;;7.82;5.30;;;20.30;99.90;;;;;;5057349;28;20725;-56
2022/05/07 17:30:48;;;;;;;13.70;5.82;;;20.20;99.90;;;;;;5040052;28;20037;-56
2022/05/07 17:33:15;;;;;;;13.32;6.90;;;20.10;99.90;;;;;;5046550;28;20102;-55
2022/05/07 17:35:41;;;;;;;11.38;7.13;;;20.10;99.90;;;;;;5043373;28;20434;-54
2022/05/07 17:38:06;;;;;;;15.35;6.90;;;20.00;99.90;;;;;;5039506;28;20028;-58
2022/05/07 17:40:32;;;;;;;11.93;6.95;;;19.80;99.90;;;;;;5048352;28;20033;-58
2022/05/07 17:42:57;;;;;;;11.90;6.68;;;19.80;99.90;;;;;;5047031;28;20156;-59
2022/05/07 17:45:24;;;;;;;15.07;6.30;;;19.80;99.90;;;;;;5049265;28;20087;-59
2022/05/07 17:49:16;;;;;;;14.45;6.90;;;19.70;99.90;;;;;;5049750;28;20024;-56
2022/05/07 17:50:37;;;;;;;12.52;7.63;;;19.60;99.90;;;;;;5051168;28;20021;-58
2022/05/07 17:53:04;;;;;;;14.20;7.53;;;19.50;99.90;;;;;;5045210;28;20009;-57
2022/05/07 17:55:30;;;;;;;12.32;6.82;;;19.30;99.90;;;;;;5045539;28;20048;-57
2022/05/07 17:57:58;;;;;;;12.13;7.13;;;19.30;99.90;;;;;;5046453;28;20047;-58
2022/05/07 18:00:24;;;;;;;14.18;7.30;;;19.20;99.90;;;;;;5030924;28;20119;-58
2022/05/07 18:02:50;;;;;;;14.65;7.18;;;19.10;99.90;;;;;;5046819;28;20025;-57
2022/05/07 18:05:15;;;;;;;14.13;7.07;;;19.00;99.90;;;;;;5046983;28;20886;-58
2022/05/07 18:07:41;;;;;;;13.88;7.57;;;19.00;99.90;;;;;;5050161;28;20021;-56
2022/05/07 18:10:06;;;;;;;10.98;6.85;;;18.90;99.90;;;;;;5045481;28;20450;-57
2022/05/07 18:12:32;;;;;;;15.88;8.15;;;18.90;99.90;;;;;;5046415;28;20040;-58
2022/05/07 18:14:57;;;;;;;15.73;7.38;;;18.80;99.90;;;;;;5048370;28;20115;-57
2022/05/07 18:17:23;;;;;;;10.10;5.97;;;18.80;99.90;;;;;;5031156;28;20076;-57
2022/05/07 18:19:49;;;;;;;16.67;6.88;;;18.80;99.90;;;;;;5052757;28;20068;-54
2022/05/07 18:22:15;;;;;;;13.63;7.72;;;18.70;99.90;;;;;;5050099;28;20028;-57
2022/05/07 18:24:40;;;;;;;12.82;7.30;;;18.60;99.90;;;;;;5049355;28;20106;-57
2022/05/07 18:27:06;;;;;;;9.82;6.65;;;18.50;99.90;;;;;;5045528;28;20493;-57
2022/05/07 18:29:31;;;;;;;10.50;6.00;;;18.40;99.90;;;;;;5051384;28;20113;-54
2022/05/07 18:31:57;;;;;;;13.02;7.60;;;18.30;99.90;;;;;;5037702;28;20120;-58
2022/05/07 18:34:23;;;;;;;14.98;6.93;;;18.30;99.90;;;;;;5048487;28;20025;-58
2022/05/07 18:45:02;;;;;;;14.75;7.15;;;18.30;99.90;;;;;;5047219;28;20509;-57
2022/05/07 18:47:27;;;;;;;9.65;6.57;;;18.30;99.90;;;;;;5040466;28;20024;-56
2022/05/07 18:49:53;;;;;;;8.32;6.53;;;18.30;99.90;;;;;;5050621;28;20554;-58
2022/05/07 18:52:19;;;;;;;9.88;7.40;;;18.30;99.90;;;;;;5042845;28;20029;-57
2022/05/07 18:54:45;;;;;;;17.85;7.68;;;18.30;99.90;;;;;;5051023;28;20055;-56
2022/05/07 18:59:55;;;;;;;9.32;6.72;;;18.20;99.90;;;;;;5048548;28;20103;-57
2022/05/07 19:02:22;;;;;;;11.93;6.97;;;18.20;99.90;;;;;;5048841;28;20494;-54
2022/05/07 19:04:47;;;;;;;12.10;6.68;;;18.10;99.90;;;;;;5051122;28;20077;-58
2022/05/07 19:07:13;;;;;;;17.38;8.25;;;18.10;99.90;;;;;;5048807;28;20032;-53
2022/05/07 19:09:38;;;;;;;13.32;7.93;;;18.00;99.90;;;;;;5048729;28;20060;-57
2022/05/07 19:12:04;;;;;;;11.20;6.72;;;18.00;99.90;;;;;;5052933;28;20036;-56
2022/05/07 19:14:30;;;;;;;12.75;7.72;;;18.00;99.90;;;;;;5051271;28;20033;-55
2022/05/07 19:16:56;;;;;;;12.57;7.55;;;18.00;99.90;;;;;;5044142;28;20108;-56
2022/05/07 19:19:21;;;;;;;19.30;9.90;;;17.90;99.90;;;;;;5044980;28;20026;-54
2022/05/07 19:21:47;;;;;;;17.15;9.40;;;17.90;99.90;;;;;;5047983;28;20032;-56
2022/05/07 19:24:14;;;;;;;16.13;9.00;;;17.80;99.90;;;;;;5043945;28;20036;-54
2022/05/07 19:26:40;;;;;;;16.55;9.30;;;17.70;99.90;;;;;;5049465;28;20094;-53
2022/05/07 19:29:06;;;;;;;14.98;9.10;;;17.70;99.90;;;;;;5050651;28;20021;-55
2022/05/07 19:31:31;;;;;;;15.75;8.48;;;17.70;99.90;;;;;;5044826;28;20094;-56
2022/05/07 19:33:58;;;;;;;18.65;8.68;;;17.70;99.90;;;;;;5093462;22;20504;-61
2022/05/07 19:36:23;;;;;;;16.02;9.23;;;17.70;99.90;;;;;;5092979;28;20097;-61
2022/05/07 19:38:50;;;;;;;14.65;9.98;;;17.70;99.90;;;;;;5084630;28;20489;-64
2022/05/07 19:41:16;;;;;;;16.50;9.13;;;17.60;99.90;;;;;;5071274;28;20024;-61
2022/05/07 19:43:42;;;;;;;16.52;9.13;;;17.60;99.90;;;;;;5069707;28;20489;-62
2022/05/07 19:46:08;;;;;;;15.75;10.30;;;17.60;99.90;;;;;;5088336;28;20134;-61
2022/05/07 19:48:34;;;;;;;17.88;9.95;;;17.50;99.90;;;;;;5091686;28;20073;-62
2022/05/07 19:51:00;;;;;;;14.60;10.45;;;17.50;99.90;;;;;;5089775;28;20024;-63
2022/05/07 19:53:25;;;;;;;18.02;9.50;;;17.50;99.90;;;;;;5088430;28;20024;-63
2022/05/07 19:55:52;;;;;;;19.10;10.18;;;17.50;99.90;;;;;;5092186;28;20036;-60
2022/05/07 19:58:18;;;;;;;15.13;9.82;;;17.50;99.90;;;;;;5092272;28;20020;-64
2022/05/07 20:00:48;;;;;;;16.33;10.13;;;17.40;99.90;;;;;;5088743;28;20477;-62
2022/05/07 20:03:14;;;;;;;20.45;10.77;;;17.20;99.90;;;;;;5089945;28;20020;-61
2022/05/07 20:05:40;;;;;;;22.50;10.27;;;17.20;99.90;;;;;;5089873;28;20229;-64
2022/05/07 20:08:08;;;;;;;15.75;10.93;;;17.20;99.90;;;;;;5071980;28;20051;-66
2022/05/07 20:10:34;;;;;;;15.55;10.88;;;17.20;99.90;;;;;;5083501;28;20500;-62
2022/05/07 20:13:00;;;;;;;17.20;10.63;;;17.10;99.90;;;;;;5086127;28;20067;-60
2022/05/07 20:15:26;;;;;;;14.45;9.30;;;17.00;99.90;;;;;;5089121;28;20028;-64
2022/05/07 20:17:52;;;;;;;21.65;9.27;;;17.00;99.90;;;;;;5094586;28;20370;-64
2022/05/07 20:20:18;;;;;;;14.88;9.23;;;16.90;99.90;;;;;;5099325;28;20020;-59
2022/05/07 20:22:44;;;;;;;12.88;8.45;;;16.70;99.90;;;;;;5091226;28;20394;-60
2022/05/07 20:25:10;;;;;;;13.45;8.82;;;16.60;99.90;;;;;;5088398;28;20020;-61
2022/05/07 20:27:36;;;;;;;15.52;8.82;;;16.30;99.90;;;;;;5095732;28;20234;-62
2022/05/07 20:30:11;;;;;;;13.13;9.05;;;16.20;99.90;;;;;;5097648;28;20031;-61
2022/05/07 20:32:40;;;;;;;12.93;7.85;;;16.00;99.90;;;;;;5103301;28;20047;-61
2022/05/07 20:35:06;;;;;;;15.13;9.32;;;16.10;99.90;;;;;;5090030;28;20024;-62
2022/05/07 20:37:32;;;;;;;13.93;8.88;;;16.00;99.90;;;;;;5100008;28;20034;-62
2022/05/07 20:39:58;;;;;;;13.98;9.00;;;15.90;99.90;;;;;;5093962;28;20129;-62
2022/05/07 20:42:24;;;;;;;17.20;9.40;;;15.70;99.90;;;;;;5096645;28;20533;-63
2022/05/07 20:47:33;;;;;;;15.60;9.37;;;15.40;99.90;;;;;;5094167;28;20500;-61
2022/05/07 20:50:00;;;;;;;14.15;9.63;;;15.30;99.90;;;;;;5091510;28;20032;-63
2022/05/07 20:52:26;;;;;;;15.27;9.75;;;15.30;99.90;;;;;;5091592;28;20028;-62
2022/05/07 20:54:51;;;;;;;15.07;10.20;;;15.30;99.90;;;;;;5089443;28;20032;-63
2022/05/07 20:57:17;;;;;;;14.52;9.20;;;15.30;99.90;;;;;;5101809;28;20031;-60
2022/05/07 20:59:42;;;;;;;14.13;8.93;;;15.30;99.90;;;;;;5088862;28;20024;-64
2022/05/07 21:02:08;;;;;;;17.70;9.77;;;15.40;99.90;;;;;;5084993;28;20028;-66
2022/05/07 21:04:34;;;;;;;17.77;10.38;;;15.40;99.90;;;;;;5082334;28;20024;-63
2022/05/07 21:07:00;;;;;;;16.15;9.63;;;15.40;99.90;;;;;;5097371;28;20095;-64
2022/05/07 21:09:26;;;;;;;14.07;8.73;;;15.40;99.90;;;;;;5092515;28;20032;-64
2022/05/07 21:11:51;;;;;;;19.17;10.18;;;15.40;99.90;;;;;;5090156;28;20023;-65
2022/05/07 21:14:17;;;;;;;19.05;9.38;;;15.40;99.90;;;;;;5090911;28;20385;-65
2022/05/07 21:16:43;;;;;;;13.93;9.98;;;15.40;99.90;;;;;;5099203;28;20461;-65
2022/05/07 21:19:10;;;;;;;16.80;10.27;;;15.40;99.90;;;;;;5089442;28;20112;-64
2022/05/07 21:21:36;;;;;;;17.45;9.52;;;15.30;99.90;;;;;;5100225;28;20020;-65
2022/05/07 21:24:03;;;;;;;14.90;9.38;;;15.30;99.90;;;;;;5090711;28;20031;-64
2022/05/07 21:26:40;;;;;;;14.77;9.43;;;15.20;99.90;;;;;;5093101;28;20047;-66
2022/05/07 21:29:11;;;;;;;13.32;8.95;;;15.20;99.90;;;;;;5094680;28;20031;-66
2022/05/07 21:31:40;;;;;;;14.57;9.27;;;15.20;99.90;;;;;;5086527;28;20421;-66
2022/05/07 21:34:07;;;;;;;13.93;8.82;;;15.20;99.90;;;;;;5098845;28;20303;-64
2022/05/07 21:36:33;;;;;;;11.93;8.73;;;15.10;99.90;;;;;;5085673;28;20023;-64
2022/05/07 21:38:59;;;;;;;13.80;8.23;;;15.00;99.90;;;;;;5091571;28;20383;-66
2022/05/07 21:41:25;;;;;;;14.88;9.18;;;15.00;99.90;;;;;;5093357;28;20070;-65
2022/05/07 21:43:53;;;;;;;16.65;9.73;;;14.80;99.90;;;;;;5087854;28;20047;-66
2022/05/07 21:46:19;;;;;;;15.52;8.88;;;14.70;99.90;;;;;;5091434;28;20366;-63
2022/05/07 21:48:44;;;;;;;14.43;8.30;;;14.70;99.90;;;;;;5092993;28;20134;-65
2022/05/07 21:53:50;;;;;;;15.25;9.20;;;14.80;99.90;;;;;;5087493;28;20027;-64
2022/05/07 21:56:16;;;;;;;18.30;9.88;;;14.80;99.90;;;;;;5090146;28;20032;-65
2022/05/07 21:58:41;;;;;;;21.05;9.32;;;14.80;99.90;;;;;;5088372;28;20034;-65
2022/05/07 22:01:08;;;;;;;14.50;9.68;;;14.90;99.90;;;;;;5091462;28;20040;-64
2022/05/07 22:03:34;;;;;;;16.50;11.45;;;14.80;99.90;;;;;;5089504;28;20107;-66
2022/05/07 22:06:00;;;;;;;23.00;11.60;;;14.90;99.90;;;;;;5092877;28;20555;-67
2022/05/07 22:08:26;;;;;;;16.20;10.35;;;14.80;99.90;;;;;;5090825;28;20042;-66
2022/05/07 22:10:53;;;;;;;20.88;11.32;;;14.80;99.90;;;;;;5075346;28;20115;-63
2022/05/07 22:13:20;;;;;;;20.15;11.80;;;14.80;99.90;;;;;;5090131;28;20024;-65
2022/05/07 22:15:46;;;;;;;20.55;10.43;;;14.80;99.90;;;;;;5090483;28;20175;-63
2022/05/07 22:18:12;;;;;;;21.95;11.43;;;14.70;99.90;;;;;;5078280;28;20032;-64
2022/05/07 22:20:40;;;;;;;23.77;11.48;;;14.70;99.90;;;;;;5090551;28;20480;-63
2022/05/07 22:23:06;;;;;;;18.70;12.15;;;14.70;99.90;;;;;;5075731;28;20123;-66
2022/05/07 22:25:32;;;;;;;20.27;10.73;;;14.50;99.90;;;;;;5087936;28;20028;-63
2022/05/07 22:27:57;;;;;;;21.60;12.00;;;14.50;99.90;;;;;;5092203;28;20024;-65
2022/05/07 22:30:23;;;;;;;19.80;11.38;;;14.50;99.90;;;;;;5088246;28;20024;-65
2022/05/07 22:32:49;;;;;;;28.30;11.77;;;14.40;99.90;;;;;;5095080;28;20028;-65
2022/05/07 22:35:15;;;;;;;22.75;11.68;;;14.30;99.90;;;;;;5097792;28;20032;-64
2022/05/07 22:37:41;;;;;;;19.90;10.27;;;14.00;99.90;;;;;;5101520;28;20024;-64
2022/05/07 22:40:07;;;;;;;18.08;10.80;;;13.90;99.90;;;;;;5093373;28;20036;-66
2022/05/07 22:42:33;;;;;;;21.17;12.25;;;13.90;99.90;;;;;;5097678;28;20438;-65
2022/05/07 22:44:58;;;;;;;22.92;12.13;;;13.80;99.90;;;;;;5090658;28;20036;-63
2022/05/07 22:47:24;;;;;;;24.85;12.40;;;13.80;99.90;;;;;;5098317;28;20552;-65
2022/05/07 22:49:57;;;;;;;22.17;12.43;;;13.70;99.90;;;;;;5090770;28;20509;-63
2022/05/07 22:52:24;;;;;;;26.92;12.88;;;13.80;99.90;;;;;;5084895;28;20039;-64
2022/05/07 22:54:49;;;;;;;25.27;13.32;;;13.80;99.90;;;;;;5089152;28;20485;-65
2022/05/07 22:57:15;;;;;;;19.50;12.15;;;13.80;99.90;;;;;;5093217;28;20043;-65
2022/05/07 22:59:40;;;;;;;25.67;13.77;;;13.70;99.90;;;;;;5094377;28;20035;-65
2022/05/07 23:02:06;;;;;;;23.38;13.65;;;13.60;99.90;;;;;;5093032;28;20039;-66
2022/05/07 23:04:32;;;;;;;29.70;14.23;;;13.50;99.90;;;;;;5090710;28;20024;-66
2022/05/07 23:06:57;;;;;;;25.60;14.55;;;13.40;99.90;;;;;;5093486;28;20111;-64
2022/05/07 23:09:23;;;;;;;31.65;15.70;;;13.30;99.90;;;;;;5089361;28;20062;-66
2022/05/07 23:11:48;;;;;;;31.98;15.57;;;13.20;99.90;;;;;;5096165;28;20031;-66
2022/05/07 23:14:14;;;;;;;26.65;15.45;;;13.10;99.90;;;;;;5090634;28;20039;-65
2022/05/07 23:16:39;;;;;;;26.38;14.70;;;13.10;99.90;;;;;;5097484;28;20024;-66
2022/05/07 23:19:05;;;;;;;29.38;15.55;;;13.10;99.90;;;;;;5088921;28;20028;-65
2022/05/07 23:21:30;;;;;;;30.95;15.27;;;13.10;99.90;;;;;;5090541;28;20031;-65
2022/05/07 23:23:56;;;;;;;26.63;14.75;;;13.10;99.90;;;;;;5089555;28;20042;-65
2022/05/07 23:26:21;;;;;;;29.20;15.65;;;13.10;99.90;;;;;;5092503;28;20020;-65
2022/05/07 23:28:48;;;;;;;31.77;15.82;;;13.10;99.90;;;;;;5092678;28;20039;-65
2022/05/07 23:31:14;;;;;;;37.03;17.42;;;13.00;99.90;;;;;;5087185;28;20035;-64
2022/05/07 23:33:40;;;;;;;33.13;18.05;;;12.90;99.90;;;;;;5088689;28;20036;-66
2022/05/07 23:36:06;;;;;;;34.55;18.20;;;12.80;99.90;;;;;;5090025;28;20466;-66
2022/05/07 23:38:32;;;;;;;39.80;19.73;;;12.80;99.90;;;;;;5085609;28;20397;-64
2022/05/07 23:40:57;;;;;;;38.00;18.95;;;12.70;99.90;;;;;;5085817;28;20032;-64
2022/05/07 23:43:24;;;;;;;34.55;19.35;;;12.70;99.90;;;;;;5094324;28;20059;-66
2022/05/07 23:45:50;;;;;;;33.67;17.98;;;12.60;99.90;;;;;;5090411;28;20016;-65
2022/05/07 23:48:16;;;;;;;36.47;19.23;;;12.60;99.90;;;;;;5089897;28;20086;-66
2022/05/07 23:50:41;;;;;;;40.58;19.90;;;12.50;99.90;;;;;;5086833;28;20111;-66
2022/05/07 23:53:07;;;;;;;37.85;20.33;;;12.50;99.90;;;;;;5095603;28;20101;-66
2022/05/07 23:55:32;;;;;;;37.42;20.33;;;12.50;99.90;;;;;;5091895;28;20044;-66
2022/05/07 23:57:58;;;;;;;38.97;20.58;;;12.60;99.90;;;;;;5091492;28;20103;-65
